METAR Data
IDs: Format: Raw Decoded Include TAF

Data at: 0225 UTC 06 Dec 2020

KMGJ 060154Z AUTO 31011G21KT 10SM CLR 02/M04 A2973 RMK AO2 SLP070 T00221044